sensor_id;sensor_type;location;lat;lon;timestamp;pressure;altitude;pressure_sealevel;temperature;humidity
26807;BME280;14380;49.910;6.792;2022-08-20T00:01:13;98789.34;;;21.44;100.00
26807;BME280;14380;49.910;6.792;2022-08-20T00:03:41;98790.59;;;21.49;100.00
26807;BME280;14380;49.910;6.792;2022-08-20T00:06:10;98789.44;;;21.34;100.00
26807;BME280;14380;49.910;6.792;2022-08-20T00:08:38;98789.97;;;21.19;100.00
26807;BME280;14380;49.910;6.792;2022-08-20T00:11:07;98788.50;;;21.07;100.00
26807;BME280;14380;49.910;6.792;2022-08-20T00:13:37;98790.41;;;21.15;100.00
26807;BME280;14380;49.910;6.792;2022-08-20T00:16:05;98780.47;;;21.25;100.00
26807;BME280;14380;49.910;6.792;2022-08-20T00:18:32;98789.97;;;21.37;100.00
26807;BME280;14380;49.910;6.792;2022-08-20T00:21:01;98787.50;;;21.26;100.00
26807;BME280;14380;49.910;6.792;2022-08-20T00:23:29;98788.94;;;21.20;100.00
26807;BME280;14380;49.910;6.792;2022-08-20T00:25:57;98785.66;;;21.27;100.00
26807;BME280;14380;49.910;6.792;2022-08-20T00:28:24;98789.44;;;21.34;100.00
26807;BME280;14380;49.910;6.792;2022-08-20T00:30:51;98789.41;;;21.16;100.00
26807;BME280;14380;49.910;6.792;2022-08-20T00:33:19;98788.59;;;21.33;100.00
26807;BME280;14380;49.910;6.792;2022-08-20T00:35:50;98790.09;;;21.00;100.00
26807;BME280;14380;49.910;6.792;2022-08-20T00:38:18;98783.34;;;21.14;100.00
26807;BME280;14380;49.910;6.792;2022-08-20T00:40:47;98779.16;;;21.29;100.00
26807;BME280;14380;49.910;6.792;2022-08-20T00:43:36;98783.22;;;21.15;100.00
26807;BME280;14380;49.910;6.792;2022-08-20T00:46:07;98787.81;;;21.23;100.00
26807;BME280;14380;49.910;6.792;2022-08-20T00:48:37;98785.22;;;21.13;100.00
26807;BME280;14380;49.910;6.792;2022-08-20T00:51:07;98793.00;;;21.06;100.00
26807;BME280;14380;49.910;6.792;2022-08-20T00:53:36;98793.78;;;20.99;100.00
26807;BME280;14380;49.910;6.792;2022-08-20T00:56:05;98795.72;;;21.24;100.00
26807;BME280;14380;49.910;6.792;2022-08-20T00:58:35;98796.09;;;21.30;100.00
26807;BME280;14380;49.910;6.792;2022-08-20T01:01:04;98795.69;;;21.06;100.00
26807;BME280;14380;49.910;6.792;2022-08-20T01:03:32;98796.28;;;21.00;100.00
26807;BME280;14380;49.910;6.792;2022-08-20T01:05:59;98794.88;;;21.24;100.00
26807;BME280;14380;49.910;6.792;2022-08-20T01:08:26;98797.94;;;21.11;100.00
26807;BME280;14380;49.910;6.792;2022-08-20T01:10:54;98793.09;;;20.97;100.00
26807;BME280;14380;49.910;6.792;2022-08-20T01:13:34;98795.13;;;20.85;100.00
26807;BME280;14380;49.910;6.792;2022-08-20T01:16:04;98794.38;;;20.92;100.00
26807;BME280;14380;49.910;6.792;2022-08-20T01:18:35;98801.16;;;20.59;100.00
26807;BME280;14380;49.910;6.792;2022-08-20T01:21:05;98797.06;;;20.64;100.00
26807;BME280;14380;49.910;6.792;2022-08-20T01:23:38;98803.41;;;20.63;100.00
26807;BME280;14380;49.910;6.792;2022-08-20T01:26:11;98798.97;;;20.72;100.00
26807;BME280;14380;49.910;6.792;2022-08-20T01:28:42;98800.25;;;20.78;100.00
26807;BME280;14380;49.910;6.792;2022-08-20T01:31:12;98793.78;;;20.71;100.00
26807;BME280;14380;49.910;6.792;2022-08-20T01:33:39;98800.84;;;20.62;100.00
26807;BME280;14380;49.910;6.792;2022-08-20T01:36:06;98792.09;;;20.70;100.00
26807;BME280;14380;49.910;6.792;2022-08-20T01:38:33;98801.84;;;20.61;100.00
26807;BME280;14380;49.910;6.792;2022-08-20T01:41:18;98807.50;;;20.58;100.00
26807;BME280;14380;49.910;6.792;2022-08-20T01:43:50;98798.41;;;20.41;100.00
26807;BME280;14380;49.910;6.792;2022-08-20T01:46:23;98808.00;;;20.43;100.00
26807;BME280;14380;49.910;6.792;2022-08-20T01:48:50;98809.94;;;20.51;100.00
26807;BME280;14380;49.910;6.792;2022-08-20T01:51:20;98805.28;;;20.53;100.00
26807;BME280;14380;49.910;6.792;2022-08-20T01:53:52;98804.06;;;20.38;100.00
26807;BME280;14380;49.910;6.792;2022-08-20T01:56:24;98803.81;;;20.31;100.00
26807;BME280;14380;49.910;6.792;2022-08-20T01:58:53;98803.81;;;20.31;100.00
26807;BME280;14380;49.910;6.792;2022-08-20T02:01:25;98798.69;;;20.38;100.00
26807;BME280;14380;49.910;6.792;2022-08-20T02:03:53;98797.91;;;20.27;100.00
26807;BME280;14380;49.910;6.792;2022-08-20T02:06:26;98801.69;;;20.34;100.00
26807;BME280;14380;49.910;6.792;2022-08-20T02:08:55;98796.34;;;20.25;100.00
26807;BME280;14380;49.910;6.792;2022-08-20T02:11:23;98803.47;;;20.06;100.00
26807;BME280;14380;49.910;6.792;2022-08-20T02:13:51;98799.41;;;20.02;100.00
26807;BME280;14380;49.910;6.792;2022-08-20T02:16:20;98802.50;;;19.77;100.00
26807;BME280;14380;49.910;6.792;2022-08-20T02:18:49;98797.84;;;19.99;100.00
26807;BME280;14380;49.910;6.792;2022-08-20T02:21:19;98806.44;;;19.83;100.00
26807;BME280;14380;49.910;6.792;2022-08-20T02:23:46;98804.31;;;19.77;100.00
26807;BME280;14380;49.910;6.792;2022-08-20T02:26:13;98809.28;;;19.82;100.00
26807;BME280;14380;49.910;6.792;2022-08-20T02:28:44;98804.75;;;19.82;100.00
26807;BME280;14380;49.910;6.792;2022-08-20T02:31:14;98808.56;;;19.89;100.00
26807;BME280;14380;49.910;6.792;2022-08-20T02:33:41;98811.38;;;19.98;100.00
26807;BME280;14380;49.910;6.792;2022-08-20T02:36:08;98807.56;;;20.00;100.00
26807;BME280;14380;49.910;6.792;2022-08-20T02:38:36;98806.16;;;19.96;100.00
26807;BME280;14380;49.910;6.792;2022-08-20T02:41:03;98803.88;;;20.01;100.00
26807;BME280;14380;49.910;6.792;2022-08-20T02:43:30;98804.75;;;19.92;100.00
26807;BME280;14380;49.910;6.792;2022-08-20T02:45:59;98792.34;;;20.01;100.00
26807;BME280;14380;49.910;6.792;2022-08-20T02:48:27;98800.94;;;20.04;100.00
26807;BME280;14380;49.910;6.792;2022-08-20T02:50:56;98799.25;;;19.94;100.00
26807;BME280;14380;49.910;6.792;2022-08-20T02:53:23;98797.00;;;19.99;100.00
26807;BME280;14380;49.910;6.792;2022-08-20T02:55:51;98791.59;;;20.09;100.00
26807;BME280;14380;49.910;6.792;2022-08-20T02:58:18;98796.88;;;19.81;100.00
26807;BME280;14380;49.910;6.792;2022-08-20T03:00:46;98789.25;;;19.96;100.00
26807;BME280;14380;49.910;6.792;2022-08-20T03:03:14;98794.03;;;20.02;100.00
26807;BME280;14380;49.910;6.792;2022-08-20T03:05:47;98798.28;;;19.95;100.00
26807;BME280;14380;49.910;6.792;2022-08-20T03:08:15;98797.69;;;19.81;100.00
26807;BME280;14380;49.910;6.792;2022-08-20T03:10:44;98799.53;;;19.81;100.00
26807;BME280;14380;49.910;6.792;2022-08-20T03:13:12;98805.59;;;19.83;100.00
26807;BME280;14380;49.910;6.792;2022-08-20T03:15:41;98807.16;;;19.66;100.00
26807;BME280;14380;49.910;6.792;2022-08-20T03:18:09;98802.50;;;19.77;100.00
26807;BME280;14380;49.910;6.792;2022-08-20T03:20:38;98809.25;;;19.72;100.00
26807;BME280;14380;49.910;6.792;2022-08-20T03:23:05;98806.47;;;19.64;100.00
26807;BME280;14380;49.910;6.792;2022-08-20T03:25:32;98803.75;;;19.83;100.00
26807;BME280;14380;49.910;6.792;2022-08-20T03:27:59;98814.47;;;19.83;100.00
26807;BME280;14380;49.910;6.792;2022-08-20T03:30:27;98825.19;;;19.83;100.00
26807;BME280;14380;49.910;6.792;2022-08-20T03:32:55;98815.34;;;19.84;100.00
26807;BME280;14380;49.910;6.792;2022-08-20T03:35:24;98822.69;;;19.91;100.00
26807;BME280;14380;49.910;6.792;2022-08-20T03:37:53;98826.19;;;19.82;100.00
26807;BME280;14380;49.910;6.792;2022-08-20T03:40:22;98823.50;;;19.82;100.00
26807;BME280;14380;49.910;6.792;2022-08-20T03:42:49;98822.66;;;19.82;100.00
26807;BME280;14380;49.910;6.792;2022-08-20T03:45:17;98824.06;;;19.86;100.00
26807;BME280;14380;49.910;6.792;2022-08-20T03:47:44;98828.31;;;19.88;100.00
26807;BME280;14380;49.910;6.792;2022-08-20T03:50:11;98822.06;;;19.88;100.00
26807;BME280;14380;49.910;6.792;2022-08-20T03:52:38;98824.66;;;19.89;100.00
26807;BME280;14380;49.910;6.792;2022-08-20T03:55:09;98830.72;;;19.82;100.00
26807;BME280;14380;49.910;6.792;2022-08-20T03:57:43;98825.06;;;19.85;100.00
26807;BME280;14380;49.910;6.792;2022-08-20T04:00:11;98824.63;;;19.99;100.00
26807;BME280;14380;49.910;6.792;2022-08-20T04:02:38;98825.75;;;19.77;100.00
26807;BME280;14380;49.910;6.792;2022-08-20T04:05:06;98827.03;;;19.83;100.00
26807;BME280;14380;49.910;6.792;2022-08-20T04:07:33;98834.09;;;19.64;100.00
26807;BME280;14380;49.910;6.792;2022-08-20T04:10:04;98834.09;;;19.54;100.00
26807;BME280;14380;49.910;6.792;2022-08-20T04:12:33;98831.69;;;19.51;100.00
26807;BME280;14380;49.910;6.792;2022-08-20T04:15:00;98837.22;;;19.59;100.00
26807;BME280;14380;49.910;6.792;2022-08-20T04:17:28;98831.41;;;19.54;100.00
26807;BME280;14380;49.910;6.792;2022-08-20T04:19:56;98836.22;;;19.60;100.00
26807;BME280;14380;49.910;6.792;2022-08-20T04:22:23;98836.63;;;19.66;100.00
26807;BME280;14380;49.910;6.792;2022-08-20T04:24:49;98835.22;;;19.61;100.00
26807;BME280;14380;49.910;6.792;2022-08-20T04:27:16;98836.06;;;19.62;100.00
26807;BME280;14380;49.910;6.792;2022-08-20T04:29:44;98838.31;;;19.67;100.00
26807;BME280;14380;49.910;6.792;2022-08-20T04:32:11;98843.25;;;19.71;100.00
26807;BME280;14380;49.910;6.792;2022-08-20T04:34:38;98840.97;;;19.67;100.00
26807;BME280;14380;49.910;6.792;2022-08-20T04:37:06;98849.47;;;19.52;100.00
26807;BME280;14380;49.910;6.792;2022-08-20T04:39:32;98850.00;;;19.56;100.00
26807;BME280;14380;49.910;6.792;2022-08-20T04:41:59;98848.91;;;19.58;100.00
26807;BME280;14380;49.910;6.792;2022-08-20T04:44:24;98847.31;;;19.66;100.00
26807;BME280;14380;49.910;6.792;2022-08-20T04:46:53;98848.91;;;19.68;100.00
26807;BME280;14380;49.910;6.792;2022-08-20T04:49:20;98848.63;;;19.71;100.00
26807;BME280;14380;49.910;6.792;2022-08-20T04:51:49;98852.97;;;19.53;100.00
26807;BME280;14380;49.910;6.792;2022-08-20T04:54:16;98858.91;;;19.56;100.00
26807;BME280;14380;49.910;6.792;2022-08-20T04:56:43;98852.84;;;19.74;100.00
26807;BME280;14380;49.910;6.792;2022-08-20T04:59:09;98856.91;;;19.78;100.00
26807;BME280;14380;49.910;6.792;2022-08-20T05:01:36;98862.56;;;19.75;100.00
26807;BME280;14380;49.910;6.792;2022-08-20T05:04:04;98861.16;;;19.81;100.00
26807;BME280;14380;49.910;6.792;2022-08-20T05:06:31;98862.00;;;19.91;100.00
26807;BME280;14380;49.910;6.792;2022-08-20T05:08:58;98863.25;;;19.77;100.00
26807;BME280;14380;49.910;6.792;2022-08-20T05:11:26;98863.88;;;19.90;100.00
26807;BME280;14380;49.910;6.792;2022-08-20T05:13:53;98869.06;;;19.82;100.00
26807;BME280;14380;49.910;6.792;2022-08-20T05:16:20;98864.84;;;19.99;100.00
26807;BME280;14380;49.910;6.792;2022-08-20T05:18:48;98864.41;;;20.14;100.00
26807;BME280;14380;49.910;6.792;2022-08-20T05:21:17;98864.66;;;20.20;100.00
26807;BME280;14380;49.910;6.792;2022-08-20T05:23:44;98868.63;;;20.06;100.00
26807;BME280;14380;49.910;6.792;2022-08-20T05:26:11;98879.34;;;20.06;100.00
26807;BME280;14380;49.910;6.792;2022-08-20T05:28:42;98889.22;;;20.16;100.00
26807;BME280;14380;49.910;6.792;2022-08-20T05:31:09;98886.56;;;20.16;100.00
26807;BME280;14380;49.910;6.792;2022-08-20T05:33:37;98889.78;;;20.19;100.00
26807;BME280;14380;49.910;6.792;2022-08-20T05:36:05;98894.72;;;20.14;100.00
26807;BME280;14380;49.910;6.792;2022-08-20T05:38:34;98892.03;;;20.24;100.00
26807;BME280;14380;49.910;6.792;2022-08-20T05:41:02;98894.44;;;20.17;100.00
26807;BME280;14380;49.910;6.792;2022-08-20T05:43:30;98891.47;;;20.30;100.00
26807;BME280;14380;49.910;6.792;2022-08-20T05:45:58;98896.41;;;20.25;100.00
26807;BME280;14380;49.910;6.792;2022-08-20T05:48:24;98888.22;;;20.27;100.00
26807;BME280;14380;49.910;6.792;2022-08-20T05:50:53;98896.31;;;20.07;100.00
26807;BME280;14380;49.910;6.792;2022-08-20T05:53:22;98898.81;;;20.18;100.00
26807;BME280;14380;49.910;6.792;2022-08-20T05:55:51;98894.41;;;20.37;100.00
26807;BME280;14380;49.910;6.792;2022-08-20T05:58:21;98897.09;;;20.37;100.00
26807;BME280;14380;49.910;6.792;2022-08-20T06:00:49;98901.06;;;20.33;100.00
26807;BME280;14380;49.910;6.792;2022-08-20T06:03:16;98905.66;;;20.60;100.00
26807;BME280;14380;49.910;6.792;2022-08-20T06:06:00;98904.91;;;20.68;100.00
26807;BME280;14380;49.910;6.792;2022-08-20T06:08:28;98904.91;;;20.68;100.00
26807;BME280;14380;49.910;6.792;2022-08-20T06:10:56;98904.09;;;20.58;100.00
26807;BME280;14380;49.910;6.792;2022-08-20T06:13:22;98904.66;;;20.61;100.00
26807;BME280;14380;49.910;6.792;2022-08-20T06:15:49;98895.44;;;20.74;100.00
26807;BME280;14380;49.910;6.792;2022-08-20T06:18:16;98904.47;;;20.83;100.00
26807;BME280;14380;49.910;6.792;2022-08-20T06:20:43;98898.59;;;20.59;100.00
26807;BME280;14380;49.910;6.792;2022-08-20T06:23:10;98897.22;;;20.45;100.00
26807;BME280;14380;49.910;6.792;2022-08-20T06:25:37;98905.88;;;20.19;100.00
26807;BME280;14380;49.910;6.792;2022-08-20T06:28:05;98913.22;;;20.27;100.00
26807;BME280;14380;49.910;6.792;2022-08-20T06:30:32;98913.06;;;20.19;100.00
26807;BME280;14380;49.910;6.792;2022-08-20T06:32:59;98908.50;;;20.49;100.00
26807;BME280;14380;49.910;6.792;2022-08-20T06:35:26;98918.13;;;20.32;100.00
26807;BME280;14380;49.910;6.792;2022-08-20T06:37:53;98913.13;;;20.57;100.00
26807;BME280;14380;49.910;6.792;2022-08-20T06:40:23;98903.28;;;20.38;100.00
26807;BME280;14380;49.910;6.792;2022-08-20T06:42:50;98898.88;;;20.56;100.00
26807;BME280;14380;49.910;6.792;2022-08-20T06:45:21;98903.91;;;20.69;100.00
26807;BME280;14380;49.910;6.792;2022-08-20T06:47:49;98910.72;;;20.63;100.00
26807;BME280;14380;49.910;6.792;2022-08-20T06:50:19;98911.22;;;20.29;100.00
26807;BME280;14380;49.910;6.792;2022-08-20T06:52:46;98917.69;;;20.36;100.00
26807;BME280;14380;49.910;6.792;2022-08-20T06:55:14;98914.63;;;20.12;100.00
26807;BME280;14380;49.910;6.792;2022-08-20T06:57:42;98917.56;;;20.38;100.00
26807;BME280;14380;49.910;6.792;2022-08-20T07:00:11;98915.50;;;20.60;100.00
26807;BME280;14380;49.910;6.792;2022-08-20T07:02:40;98915.31;;;21.19;100.00
26807;BME280;14380;49.910;6.792;2022-08-20T07:05:08;98909.81;;;22.03;96.49
26807;BME280;14380;49.910;6.792;2022-08-20T07:07:35;98919.56;;;22.04;93.99
26807;BME280;14380;49.910;6.792;2022-08-20T07:10:04;98915.38;;;22.01;92.59
26807;BME280;14380;49.910;6.792;2022-08-20T07:12:32;98922.44;;;21.84;92.12
26807;BME280;14380;49.910;6.792;2022-08-20T07:15:01;98922.78;;;22.43;89.43
26807;BME280;14380;49.910;6.792;2022-08-20T07:17:28;98917.56;;;22.68;86.77
26807;BME280;14380;49.910;6.792;2022-08-20T07:19:56;98920.03;;;22.96;87.23
26807;BME280;14380;49.910;6.792;2022-08-20T07:22:23;98936.75;;;22.73;85.72
26807;BME280;14380;49.910;6.792;2022-08-20T07:24:50;98931.94;;;21.32;89.63
26807;BME280;14380;49.910;6.792;2022-08-20T07:27:19;98934.00;;;21.66;91.13
26807;BME280;14380;49.910;6.792;2022-08-20T07:29:46;98938.28;;;21.59;89.63
26807;BME280;14380;49.910;6.792;2022-08-20T07:32:30;98938.69;;;22.19;87.48
26807;BME280;14380;49.910;6.792;2022-08-20T07:35:04;98932.38;;;22.72;84.91
26807;BME280;14380;49.910;6.792;2022-08-20T07:37:36;98937.66;;;22.82;80.50
26807;BME280;14380;49.910;6.792;2022-08-20T07:40:04;98930.81;;;22.62;78.66
26807;BME280;14380;49.910;6.792;2022-08-20T07:42:31;98927.69;;;22.75;80.08
26807;BME280;14380;49.910;6.792;2022-08-20T07:44:58;98933.50;;;22.96;79.42
26807;BME280;14380;49.910;6.792;2022-08-20T07:47:24;98922.19;;;22.84;77.92
26807;BME280;14380;49.910;6.792;2022-08-20T07:49:51;98930.94;;;22.86;77.69
26807;BME280;14380;49.910;6.792;2022-08-20T07:52:19;98937.00;;;22.88;76.75
26807;BME280;14380;49.910;6.792;2022-08-20T07:54:46;98936.81;;;22.82;76.78
26807;BME280;14380;49.910;6.792;2022-08-20T07:57:12;98936.25;;;23.05;76.14
26807;BME280;14380;49.910;6.792;2022-08-20T07:59:41;98943.13;;;23.25;74.38
26807;BME280;14380;49.910;6.792;2022-08-20T08:02:09;98943.25;;;22.89;74.97
26807;BME280;14380;49.910;6.792;2022-08-20T08:04:36;98936.19;;;22.96;75.33
26807;BME280;14380;49.910;6.792;2022-08-20T08:07:03;98937.72;;;22.64;75.40
26807;BME280;14380;49.910;6.792;2022-08-20T08:09:32;98946.00;;;22.45;75.25
26807;BME280;14380;49.910;6.792;2022-08-20T08:11:59;98953.34;;;22.42;74.34
26807;BME280;14380;49.910;6.792;2022-08-20T08:14:30;98954.97;;;22.80;73.52
26807;BME280;14380;49.910;6.792;2022-08-20T08:17:01;98944.44;;;22.95;71.26
26807;BME280;14380;49.910;6.792;2022-08-20T08:19:31;98952.88;;;23.26;69.49
26807;BME280;14380;49.910;6.792;2022-08-20T08:22:04;98944.03;;;22.81;70.27
26807;BME280;14380;49.910;6.792;2022-08-20T08:24:32;98947.06;;;23.13;70.34
26807;BME280;14380;49.910;6.792;2022-08-20T08:26:59;98942.69;;;23.46;70.64
26807;BME280;14380;49.910;6.792;2022-08-20T08:29:26;98941.38;;;23.67;69.57
26807;BME280;14380;49.910;6.792;2022-08-20T08:31:53;98945.53;;;23.37;68.01
26807;BME280;14380;49.910;6.792;2022-08-20T08:34:20;98949.06;;;22.50;70.08
26807;BME280;14380;49.910;6.792;2022-08-20T08:36:50;98943.66;;;23.37;69.07
26807;BME280;14380;49.910;6.792;2022-08-20T08:39:17;98943.06;;;23.68;67.43
26807;BME280;14380;49.910;6.792;2022-08-20T08:41:47;98952.81;;;23.53;66.39
26807;BME280;14380;49.910;6.792;2022-08-20T08:44:18;98951.75;;;23.37;68.15
26807;BME280;14380;49.910;6.792;2022-08-20T08:46:51;98944.63;;;23.79;68.36
26807;BME280;14380;49.910;6.792;2022-08-20T08:49:22;98950.72;;;24.31;66.50
26807;BME280;14380;49.910;6.792;2022-08-20T08:51:53;98956.97;;;23.47;68.21
26807;BME280;14380;49.910;6.792;2022-08-20T08:54:25;98967.19;;;23.78;65.42
26807;BME280;14380;49.910;6.792;2022-08-20T08:56:55;98962.22;;;24.08;65.63
26807;BME280;14380;49.910;6.792;2022-08-20T08:59:27;98960.19;;;24.35;65.94
26807;BME280;14380;49.910;6.792;2022-08-20T09:01:57;98974.22;;;23.63;67.14
26807;BME280;14380;49.910;6.792;2022-08-20T09:04:29;98961.56;;;23.55;67.36
26807;BME280;14380;49.910;6.792;2022-08-20T09:06:58;98971.94;;;23.84;66.53
26807;BME280;14380;49.910;6.792;2022-08-20T09:09:31;98969.94;;;23.43;66.65
26807;BME280;14380;49.910;6.792;2022-08-20T09:12:05;98971.03;;;23.59;66.54
26807;BME280;14380;49.910;6.792;2022-08-20T09:14:32;98962.28;;;23.22;65.12
26807;BME280;14380;49.910;6.792;2022-08-20T09:17:00;98956.75;;;23.75;63.74
26807;BME280;14380;49.910;6.792;2022-08-20T09:19:27;98951.88;;;23.95;63.30
26807;BME280;14380;49.910;6.792;2022-08-20T09:21:55;98957.31;;;24.12;62.11
26807;BME280;14380;49.910;6.792;2022-08-20T09:24:21;98952.28;;;24.50;62.50
26807;BME280;14380;49.910;6.792;2022-08-20T09:26:48;98954.28;;;24.31;61.40
26807;BME280;14380;49.910;6.792;2022-08-20T09:29:16;98962.03;;;24.01;62.78
26807;BME280;14380;49.910;6.792;2022-08-20T09:31:43;98958.34;;;24.27;61.66
26807;BME280;14380;49.910;6.792;2022-08-20T09:34:10;98955.25;;;23.89;62.50
26807;BME280;14380;49.910;6.792;2022-08-20T09:36:37;98951.22;;;24.59;62.03
26807;BME280;14380;49.910;6.792;2022-08-20T09:39:03;98963.53;;;24.78;61.13
26807;BME280;14380;49.910;6.792;2022-08-20T09:41:30;98951.56;;;24.89;60.28
26807;BME280;14380;49.910;6.792;2022-08-20T09:43:57;98955.72;;;23.76;62.10
26807;BME280;14380;49.910;6.792;2022-08-20T09:46:25;98948.84;;;23.90;62.65
26807;BME280;14380;49.910;6.792;2022-08-20T09:48:52;98959.16;;;24.61;62.64
26807;BME280;14380;49.910;6.792;2022-08-20T09:51:18;98955.88;;;24.99;61.02
26807;BME280;14380;49.910;6.792;2022-08-20T09:53:45;98950.81;;;25.04;59.89
26807;BME280;14380;49.910;6.792;2022-08-20T09:56:13;98958.75;;;25.53;59.62
26807;BME280;14380;49.910;6.792;2022-08-20T09:58:46;98960.31;;;24.67;60.92
26807;BME280;14380;49.910;6.792;2022-08-20T10:01:16;98944.84;;;25.88;60.22
26807;BME280;14380;49.910;6.792;2022-08-20T10:03:46;98944.78;;;25.73;59.02
26807;BME280;14380;49.910;6.792;2022-08-20T10:06:13;98944.78;;;24.93;60.48
26807;BME280;14380;49.910;6.792;2022-08-20T10:08:41;98946.03;;;25.22;60.45
26807;BME280;14380;49.910;6.792;2022-08-20T10:11:07;98936.84;;;25.95;60.20
26807;BME280;14380;49.910;6.792;2022-08-20T10:13:34;98937.25;;;26.15;59.72
26807;BME280;14380;49.910;6.792;2022-08-20T10:16:01;98937.97;;;25.54;59.38
26807;BME280;14380;49.910;6.792;2022-08-20T10:18:28;98938.72;;;24.83;61.81
26807;BME280;14380;49.910;6.792;2022-08-20T10:20:56;98933.41;;;25.78;61.46
26807;BME280;14380;49.910;6.792;2022-08-20T10:23:23;98925.63;;;26.30;59.09
26807;BME280;14380;49.910;6.792;2022-08-20T10:25:49;98929.34;;;25.50;60.45
26807;BME280;14380;49.910;6.792;2022-08-20T10:28:16;98932.97;;;26.21;60.01
26807;BME280;14380;49.910;6.792;2022-08-20T10:30:43;98930.13;;;26.52;59.00
26807;BME280;14380;49.910;6.792;2022-08-20T10:33:11;98928.63;;;26.35;59.82
26807;BME280;14380;49.910;6.792;2022-08-20T10:35:37;98928.56;;;26.43;59.57
26807;BME280;14380;49.910;6.792;2022-08-20T10:38:05;98932.72;;;26.84;58.66
26807;BME280;14380;49.910;6.792;2022-08-20T10:40:32;98924.06;;;26.50;59.33
26807;BME280;14380;49.910;6.792;2022-08-20T10:42:59;98923.19;;;26.20;59.05
26807;BME280;14380;49.910;6.792;2022-08-20T10:45:26;98938.97;;;26.31;59.65
26807;BME280;14380;49.910;6.792;2022-08-20T10:47:53;98931.66;;;26.55;59.02
26807;BME280;14380;49.910;6.792;2022-08-20T10:50:19;98927.41;;;25.91;59.73
26807;BME280;14380;49.910;6.792;2022-08-20T10:52:46;98938.56;;;25.33;61.31
26807;BME280;14380;49.910;6.792;2022-08-20T10:55:14;98940.31;;;25.17;61.88
26807;BME280;14380;49.910;6.792;2022-08-20T10:57:42;98934.88;;;26.35;59.40
26807;BME280;14380;49.910;6.792;2022-08-20T11:00:11;98920.00;;;26.31;58.12
26807;BME280;14380;49.910;6.792;2022-08-20T11:02:39;98926.16;;;26.78;58.43
26807;BME280;14380;49.910;6.792;2022-08-20T11:05:06;98927.09;;;26.09;58.96
26807;BME280;14380;49.910;6.792;2022-08-20T11:07:35;98922.97;;;25.75;60.05
26807;BME280;14380;49.910;6.792;2022-08-20T11:10:03;98922.00;;;25.36;60.52
26807;BME280;14380;49.910;6.792;2022-08-20T11:12:32;98935.22;;;26.70;58.49
26807;BME280;14380;49.910;6.792;2022-08-20T11:14:58;98932.34;;;27.02;56.66
26807;BME280;14380;49.910;6.792;2022-08-20T11:17:27;98923.94;;;27.64;54.45
26807;BME280;14380;49.910;6.792;2022-08-20T11:19:54;98922.47;;;27.83;55.45
26807;BME280;14380;49.910;6.792;2022-08-20T11:22:22;98911.03;;;27.66;56.08
26807;BME280;14380;49.910;6.792;2022-08-20T11:24:49;98919.72;;;27.98;55.36
26807;BME280;14380;49.910;6.792;2022-08-20T11:27:21;98931.75;;;27.52;55.55
26807;BME280;14380;49.910;6.792;2022-08-20T11:29:50;98911.03;;;27.29;56.90
26807;BME280;14380;49.910;6.792;2022-08-20T11:32:17;98909.63;;;27.33;55.31
26807;BME280;14380;49.910;6.792;2022-08-20T11:34:44;98915.06;;;28.13;54.49
26807;BME280;14380;49.910;6.792;2022-08-20T11:37:11;98909.03;;;27.96;54.96
26807;BME280;14380;49.910;6.792;2022-08-20T11:39:37;98931.16;;;27.05;55.38
26807;BME280;14380;49.910;6.792;2022-08-20T11:42:04;98921.56;;;26.79;55.67
26807;BME280;14380;49.910;6.792;2022-08-20T11:44:31;98925.63;;;26.83;55.88
26807;BME280;14380;49.910;6.792;2022-08-20T11:47:00;98920.06;;;26.46;56.72
26807;BME280;14380;49.910;6.792;2022-08-20T11:49:28;98933.28;;;27.09;56.96
26807;BME280;14380;49.910;6.792;2022-08-20T11:51:54;98932.72;;;26.84;56.60
26807;BME280;14380;49.910;6.792;2022-08-20T11:54:21;98935.50;;;26.76;56.35
26807;BME280;14380;49.910;6.792;2022-08-20T11:56:48;98927.22;;;26.24;57.68
26807;BME280;14380;49.910;6.792;2022-08-20T11:59:15;98915.53;;;27.22;56.84
26807;BME280;14380;49.910;6.792;2022-08-20T12:01:42;98908.16;;;27.67;55.57
26807;BME280;14380;49.910;6.792;2022-08-20T12:04:10;98910.38;;;26.67;56.49
26807;BME280;14380;49.910;6.792;2022-08-20T12:06:37;98901.28;;;27.93;55.75
26807;BME280;14380;49.910;6.792;2022-08-20T12:09:04;98903.69;;;28.25;54.62
26807;BME280;14380;49.910;6.792;2022-08-20T12:11:30;98904.72;;;26.92;56.43
26807;BME280;14380;49.910;6.792;2022-08-20T12:13:57;98905.97;;;27.26;56.80
26807;BME280;14380;49.910;6.792;2022-08-20T12:16:24;98918.91;;;27.45;56.31
26807;BME280;14380;49.910;6.792;2022-08-20T12:18:50;98922.25;;;27.26;56.01
26807;BME280;14380;49.910;6.792;2022-08-20T12:21:18;98920.47;;;27.48;55.68
26807;BME280;14380;49.910;6.792;2022-08-20T12:23:45;98915.13;;;27.40;54.95
26807;BME280;14380;49.910;6.792;2022-08-20T12:26:12;98897.19;;;28.47;54.91
26807;BME280;14380;49.910;6.792;2022-08-20T12:28:41;98893.56;;;28.69;53.43
26807;BME280;14380;49.910;6.792;2022-08-20T12:31:08;98901.25;;;27.86;53.79
26807;BME280;14380;49.910;6.792;2022-08-20T12:33:34;98902.41;;;27.77;53.78
26807;BME280;14380;49.910;6.792;2022-08-20T12:36:01;98898.81;;;27.55;53.93
26807;BME280;14380;49.910;6.792;2022-08-20T12:38:29;98901.94;;;26.77;54.42
26807;BME280;14380;49.910;6.792;2022-08-20T12:40:56;98902.09;;;26.30;56.02
26807;BME280;14380;49.910;6.792;2022-08-20T12:43:23;98900.59;;;27.11;54.16
26807;BME280;14380;49.910;6.792;2022-08-20T12:45:49;98885.69;;;28.17;53.12
26807;BME280;14380;49.910;6.792;2022-08-20T12:48:16;98893.28;;;27.85;53.53
26807;BME280;14380;49.910;6.792;2022-08-20T12:50:45;98895.75;;;28.23;51.39
26807;BME280;14380;49.910;6.792;2022-08-20T12:53:11;98886.94;;;27.99;51.20
26807;BME280;14380;49.910;6.792;2022-08-20T12:55:39;98893.91;;;28.59;51.16
26807;BME280;14380;49.910;6.792;2022-08-20T12:58:08;98886.16;;;28.84;50.23
26807;BME280;14380;49.910;6.792;2022-08-20T13:00:37;98883.16;;;29.14;50.37